Quillacollo, Bolivia
Current Conditions -  °F | °C
As of 11:00 PM on Saturday 25 Oct 2014 (Local Time) from SLCB Reporting Station
Few Clouds Few Clouds  
Wind Chill: 64°   Ceiling: Unl
Heat Index: 64°   Visibility: 6mi
Dew Point: 39°   Wind: 6mph
Humidity: 40%   Direction: 110°ESE
Pressure: 30.3"   Gusts: NA
Location:  17.4°S, 66.28°W
Report Text: SLCB 260300Z 11005KT 9999 FEW027 18/04 Q1026
Loading
Personal Weather Stations






























Interactive Weather Map
Tropical Storm Tracking
New forecast layout! Learn more

10-Day Weather Forecast

Advertisements
Track Severe Weather on mobile